createdAt,value
2022-08-05T16:24:12.715Z,56.27
2022-08-05T16:26:59.513Z,56.19
2022-08-05T16:29:28.746Z,55.94
2022-08-05T16:31:57.997Z,55.40
2022-08-05T16:34:25.379Z,55.13
2022-08-05T16:36:53.858Z,53.88
2022-08-05T16:39:20.620Z,54.74
2022-08-05T16:42:14.592Z,54.24
2022-08-05T16:44:34.371Z,54.31
2022-08-05T16:47:04.591Z,53.90
2022-08-05T16:49:31.196Z,53.95
2022-08-05T16:51:57.742Z,53.27
2022-08-05T16:54:30.465Z,53.08
2022-08-05T16:56:59.781Z,52.11
2022-08-05T16:59:27.830Z,52.22
2022-08-05T17:01:57.470Z,50.64
2022-08-05T17:04:26.962Z,49.44
2022-08-05T17:06:55.962Z,49.49
2022-08-05T17:09:28.285Z,49.31
2022-08-05T17:12:00.064Z,48.97
2022-08-05T17:14:36.850Z,48.70
2022-08-05T17:17:05.594Z,49.20
2022-08-05T17:19:32.237Z,48.97
2022-08-05T17:22:00.939Z,48.09
2022-08-05T17:24:38.767Z,48.26
2022-08-05T17:27:10.258Z,48.45
2022-08-05T17:29:41.329Z,48.06
2022-08-05T17:32:17.093Z,47.87
2022-08-05T17:34:48.461Z,47.59
2022-08-05T17:37:35.877Z,47.53
2022-08-05T17:40:10.725Z,47.22
2022-08-05T17:42:41.802Z,47.15
2022-08-05T17:45:29.564Z,46.36
2022-08-05T17:48:07.701Z,46.43
2022-08-05T17:50:34.432Z,47.62
2022-08-05T17:53:02.564Z,46.39
2022-08-05T17:55:38.255Z,47.21
2022-08-05T17:58:12.674Z,46.34
2022-08-05T18:00:47.539Z,46.67
2022-08-05T18:03:33.246Z,46.65
2022-08-05T18:06:10.882Z,46.34
2022-08-05T18:08:44.094Z,46.92
2022-08-05T18:11:23.891Z,46.62
2022-08-05T18:13:56.274Z,47.13
2022-08-05T18:16:23.209Z,47.49
2022-08-05T18:18:50.280Z,47.46
2022-08-05T18:21:20.054Z,47.55
2022-08-05T18:23:49.438Z,47.96
2022-08-05T18:26:20.829Z,47.78
2022-08-05T18:28:47.388Z,47.94
2022-08-05T18:31:15.792Z,48.20
2022-08-05T18:33:47.095Z,48.75
2022-08-05T18:36:17.207Z,48.97
2022-08-05T18:38:46.168Z,49.65
2022-08-05T18:41:53.397Z,49.49
2022-08-05T18:44:06.353Z,49.68
2022-08-05T18:46:34.327Z,50.21
2022-08-05T18:49:21.141Z,50.79
2022-08-05T18:52:17.153Z,51.02
2022-08-05T18:54:59.992Z,51.39
2022-08-05T18:57:26.637Z,51.60
2022-08-05T19:00:20.626Z,51.68
2022-08-05T19:02:47.583Z,51.78
2022-08-05T19:06:11.915Z,51.82
2022-08-05T19:08:02.754Z,52.15
2022-08-05T19:10:30.494Z,52.25
2022-08-05T19:12:57.489Z,52.62
2022-08-05T19:15:58.081Z,53.02
2022-08-05T19:18:20.878Z,53.50
2022-08-05T19:20:52.359Z,53.71
2022-08-05T19:23:22.474Z,53.69
2022-08-05T19:26:09.275Z,54.12
2022-08-05T19:28:42.025Z,54.54
2022-08-05T19:31:09.498Z,54.71
2022-08-05T19:33:40.610Z,54.88
2022-08-05T19:36:16.957Z,55.28
2022-08-05T19:38:44.988Z,55.60
2022-08-05T19:41:11.598Z,55.80
2022-08-05T19:44:05.375Z,55.55
2022-08-05T19:46:29.348Z,55.81
2022-08-05T19:48:56.457Z,56.06
2022-08-05T19:51:56.553Z,56.11
2022-08-05T19:54:21.794Z,56.28
2022-08-05T19:56:55.322Z,56.83
2022-08-05T19:59:55.339Z,56.67
2022-08-05T20:02:08.630Z,56.83
2022-08-05T20:04:35.295Z,56.97
2022-08-05T20:07:02.743Z,57.32
2022-08-05T20:09:29.419Z,57.12
2022-08-05T20:12:16.191Z,57.41
2022-08-05T20:14:45.624Z,57.64
2022-08-05T20:17:16.233Z,57.95
2022-08-05T20:19:43.146Z,57.92
2022-08-05T20:22:10.818Z,58.40
2022-08-05T20:24:38.042Z,58.48
2022-08-05T20:27:11.447Z,58.61
2022-08-05T20:29:38.409Z,58.77
2022-08-05T20:32:06.644Z,59.03
2022-08-05T20:34:33.412Z,59.16
2022-08-05T20:37:00.831Z,59.48
2022-08-05T20:39:36.616Z,59.76
2022-08-05T20:42:04.747Z,59.79
2022-08-05T20:44:32.924Z,59.93
2022-08-05T20:47:07.369Z,60.13
2022-08-05T20:49:39.634Z,60.00
2022-08-05T20:52:07.762Z,60.17
2022-08-05T20:54:42.942Z,60.50
2022-08-05T20:57:42.754Z,61.11
2022-08-05T21:00:40.042Z,61.23
2022-08-05T21:03:01.555Z,61.44
2022-08-05T21:05:48.034Z,61.48
2022-08-05T21:08:15.511Z,61.73
2022-08-05T21:10:49.079Z,61.97
2022-08-05T21:13:26.403Z,62.20
2022-08-05T21:16:03.616Z,62.39
2022-08-05T21:18:30.487Z,62.74
2022-08-05T21:20:57.432Z,62.81
2022-08-05T21:23:24.773Z,62.82
2022-08-05T21:25:51.714Z,63.17
2022-08-05T21:28:23.840Z,63.51
2022-08-05T21:30:57.292Z,63.52
2022-08-05T21:33:24.237Z,63.94
2022-08-05T21:36:03.847Z,64.12
2022-08-05T21:38:30.453Z,63.95
2022-08-05T21:40:57.107Z,64.52
2022-08-05T21:43:25.149Z,64.79
2022-08-05T21:45:57.987Z,65.08
2022-08-05T21:48:28.691Z,65.74
2022-08-05T21:50:55.798Z,65.86
2022-08-05T21:53:27.711Z,65.97
2022-08-05T21:56:01.799Z,66.25
2022-08-05T21:58:41.933Z,65.98
2022-08-05T22:01:10.611Z,66.32
2022-08-05T22:03:52.122Z,66.53
2022-08-05T22:06:22.275Z,66.51
2022-08-05T22:08:51.895Z,67.02
2022-08-05T22:11:19.286Z,67.17
2022-08-05T22:14:06.460Z,67.38
2022-08-05T22:16:51.878Z,67.85
2022-08-05T22:20:01.791Z,67.99
2022-08-05T22:22:10.316Z,68.12
2022-08-05T22:24:57.189Z,68.60
2022-08-05T22:28:04.892Z,68.29
2022-08-05T22:30:35.282Z,68.55
2022-08-05T22:33:15.471Z,68.84
2022-08-05T22:35:48.606Z,69.37
2022-08-05T22:38:16.424Z,69.72
2022-08-05T22:40:50.081Z,69.91
2022-08-05T22:43:36.703Z,69.94
2022-08-05T22:46:12.005Z,69.93
2022-08-05T22:48:41.057Z,70.20
2022-08-05T22:51:07.780Z,70.27
2022-08-05T22:53:35.979Z,70.80
2022-08-05T22:56:03.559Z,70.64
2022-08-05T22:58:36.679Z,70.66
2022-08-05T23:01:03.318Z,70.72
2022-08-05T23:03:57.794Z,70.99
2022-08-05T23:06:19.119Z,70.86
2022-08-05T23:08:45.797Z,71.07
2022-08-05T23:11:18.851Z,71.25
2022-08-05T23:13:45.871Z,71.34
2022-08-05T23:16:33.207Z,71.32
2022-08-05T23:19:00.270Z,71.48
2022-08-05T23:21:42.550Z,71.67
2022-08-05T23:24:14.579Z,71.76
2022-08-05T23:26:41.937Z,71.78
2022-08-05T23:29:10.869Z,71.85
2022-08-05T23:31:42.482Z,72.10
2022-08-05T23:34:09.071Z,72.09
2022-08-05T23:36:40.274Z,71.70
2022-08-05T23:39:17.532Z,71.53
2022-08-05T23:41:50.846Z,71.89
2022-08-05T23:44:17.418Z,71.82
2022-08-05T23:46:46.699Z,72.07
2022-08-05T23:49:22.293Z,71.88
2022-08-05T23:52:10.642Z,71.89
2022-08-05T23:54:38.689Z,72.22
2022-08-05T23:57:06.488Z,72.17
2022-08-05T23:59:37.604Z,71.94
